createdAt,value
2018-12-18T00:02:19.701Z,21.87
2018-12-18T00:04:45.697Z,23.80
2018-12-18T00:07:11.680Z,20.40
2018-12-18T00:09:37.644Z,21.83
2018-12-18T00:12:03.784Z,22.87
2018-12-18T00:14:29.746Z,22.20
2018-12-18T00:16:55.744Z,22.00
2018-12-18T00:19:21.696Z,25.10
2018-12-18T00:21:47.656Z,22.47
2018-12-18T00:24:13.650Z,21.40
2018-12-18T00:26:39.724Z,22.13
2018-12-18T00:29:05.705Z,21.93
2018-12-18T00:31:33.465Z,21.23
2018-12-18T00:33:59.461Z,22.37
2018-12-18T00:36:25.412Z,22.03
2018-12-18T00:38:51.392Z,21.73
2018-12-18T00:41:17.360Z,22.07
2018-12-18T00:43:43.343Z,23.00
2018-12-18T00:46:09.319Z,22.53
2018-12-18T00:48:35.905Z,23.53
2018-12-18T00:51:06.639Z,22.97
2018-12-18T00:53:32.926Z,22.67
2018-12-18T00:55:58.927Z,22.27
2018-12-18T00:58:24.991Z,22.90
2018-12-18T01:00:51.094Z,22.73
2018-12-18T01:03:17.197Z,22.23
2018-12-18T01:05:43.210Z,22.40
2018-12-18T01:08:09.203Z,22.50
2018-12-18T01:10:35.178Z,22.20
2018-12-18T01:13:01.163Z,21.60
2018-12-18T01:15:27.150Z,21.70
2018-12-18T01:17:53.146Z,22.87
2018-12-18T01:20:19.100Z,23.03
2018-12-18T01:22:45.104Z,24.90
2018-12-18T01:25:11.058Z,23.53
2018-12-18T01:27:37.062Z,24.80
2018-12-18T01:30:03.630Z,23.47
2018-12-18T01:32:29.583Z,22.03
2018-12-18T01:34:55.597Z,23.10
2018-12-18T01:37:21.565Z,22.40
2018-12-18T01:39:47.561Z,23.50
2018-12-18T01:42:13.529Z,23.73
2018-12-18T01:44:39.508Z,24.90
2018-12-18T01:47:05.545Z,22.67
2018-12-18T01:49:31.546Z,24.33
2018-12-18T01:51:57.531Z,22.57
2018-12-18T01:54:23.628Z,22.80
2018-12-18T01:56:49.718Z,23.60
2018-12-18T01:59:15.711Z,21.70
2018-12-18T02:01:41.678Z,23.47
2018-12-18T02:04:07.672Z,24.17
2018-12-18T02:06:33.692Z,25.47
2018-12-18T02:09:00.245Z,24.93
2018-12-18T02:11:26.190Z,26.73
2018-12-18T02:13:52.270Z,24.77
2018-12-18T02:16:18.302Z,23.80
2018-12-18T02:18:44.304Z,24.03
2018-12-18T02:21:10.263Z,24.07
2018-12-18T02:23:36.259Z,24.30
2018-12-18T02:26:02.271Z,27.00
2018-12-18T02:28:28.364Z,23.63
2018-12-18T02:30:54.330Z,23.70
2018-12-18T02:33:20.280Z,24.23
2018-12-18T02:35:46.306Z,25.27
2018-12-18T02:38:12.279Z,23.10
2018-12-18T02:40:38.269Z,23.10
2018-12-18T02:43:04.294Z,23.60
2018-12-18T02:45:30.291Z,24.40
2018-12-18T02:47:56.295Z,23.63
2018-12-18T02:50:22.422Z,24.47
2018-12-18T02:52:48.427Z,25.27
2018-12-18T02:55:14.538Z,26.93
2018-12-18T02:57:40.585Z,25.87
2018-12-18T03:00:06.627Z,27.63
2018-12-18T03:02:32.647Z,26.47
2018-12-18T03:04:58.652Z,26.10
2018-12-18T03:07:24.626Z,23.67
2018-12-18T03:09:50.629Z,23.27
2018-12-18T03:12:16.572Z,24.33
2018-12-18T03:14:42.574Z,24.70
2018-12-18T03:17:08.551Z,24.23
2018-12-18T03:19:34.525Z,25.77
2018-12-18T03:22:00.562Z,28.07
2018-12-18T03:24:26.523Z,23.70
2018-12-18T03:26:52.555Z,24.10
2018-12-18T03:29:19.047Z,25.63
2018-12-18T03:31:47.079Z,27.47
2018-12-18T03:34:13.048Z,25.50
2018-12-18T03:36:39.058Z,26.03
2018-12-18T03:39:05.422Z,25.90
2018-12-18T03:41:31.396Z,25.07
2018-12-18T03:43:57.407Z,24.90
2018-12-18T03:46:24.052Z,23.50
2018-12-18T03:48:50.074Z,24.33
2018-12-18T03:51:16.067Z,26.17
2018-12-18T03:53:42.046Z,23.50
2018-12-18T03:56:08.063Z,26.43
2018-12-18T03:58:34.014Z,25.87
2018-12-18T04:01:00.012Z,29.73
2018-12-18T04:03:26.094Z,25.40
2018-12-18T04:05:52.081Z,25.50
2018-12-18T04:08:18.083Z,26.53
2018-12-18T04:10:44.048Z,24.57
2018-12-18T04:13:10.014Z,25.63
2018-12-18T04:15:36.107Z,24.53
2018-12-18T04:18:02.089Z,23.50
2018-12-18T04:20:28.055Z,24.40
2018-12-18T04:22:54.110Z,24.10
2018-12-18T04:25:20.226Z,24.90
2018-12-18T04:27:46.341Z,25.23
2018-12-18T04:30:12.326Z,25.73
2018-12-18T04:32:38.342Z,24.47
2018-12-18T04:35:04.341Z,23.83
2018-12-18T04:37:30.293Z,23.23
2018-12-18T04:39:56.295Z,23.10
2018-12-18T04:42:22.284Z,26.23
2018-12-18T04:44:48.292Z,24.87
2018-12-18T04:47:14.246Z,24.53
2018-12-18T04:49:40.233Z,23.80
2018-12-18T04:52:06.256Z,24.07
2018-12-18T04:54:32.252Z,23.00
2018-12-18T04:56:58.241Z,21.23
2018-12-18T04:59:24.296Z,24.40
2018-12-18T05:01:50.355Z,21.87
2018-12-18T05:04:16.355Z,24.60
2018-12-18T05:06:42.337Z,21.60
2018-12-18T05:09:08.315Z,20.90
2018-12-18T05:11:34.322Z,21.53
2018-12-18T05:14:00.348Z,23.47
2018-12-18T05:16:26.705Z,20.30
2018-12-18T05:18:52.689Z,21.63
2018-12-18T05:21:18.644Z,22.40
2018-12-18T05:23:44.649Z,24.13
2018-12-18T05:26:10.752Z,20.70
2018-12-18T05:28:36.846Z,20.53
2018-12-18T05:31:02.853Z,20.80
2018-12-18T05:33:28.973Z,24.07
2018-12-18T05:35:54.938Z,20.37
2018-12-18T05:38:20.959Z,23.47
2018-12-18T05:40:46.910Z,22.70
2018-12-18T05:43:12.916Z,19.70
2018-12-18T05:45:38.924Z,23.87
2018-12-18T05:48:04.882Z,21.73
2018-12-18T05:50:30.913Z,23.70
2018-12-18T05:52:56.869Z,20.63
2018-12-18T05:55:22.910Z,21.13
2018-12-18T05:57:48.978Z,21.33
2018-12-18T06:00:14.974Z,21.90
2018-12-18T06:02:41.094Z,21.53
2018-12-18T06:05:07.058Z,21.93
2018-12-18T06:07:33.070Z,19.10
2018-12-18T06:09:59.030Z,21.37
2018-12-18T06:12:25.042Z,18.50
2018-12-18T06:14:50.999Z,21.77
2018-12-18T06:17:16.977Z,26.10
2018-12-18T06:19:42.994Z,22.03
2018-12-18T06:22:08.963Z,23.47
2018-12-18T06:24:34.963Z,21.00
2018-12-18T06:27:00.953Z,19.17
2018-12-18T06:29:26.960Z,22.33
2018-12-18T06:31:52.926Z,19.63
2018-12-18T06:34:18.900Z,21.67
2018-12-18T06:36:44.912Z,19.47
2018-12-18T06:39:10.878Z,22.90
2018-12-18T06:41:36.927Z,19.43
2018-12-18T06:44:03.056Z,18.10
2018-12-18T06:46:35.868Z,21.33
2018-12-18T06:49:01.844Z,17.40
2018-12-18T06:51:27.893Z,17.33
2018-12-18T06:53:53.842Z,21.00
2018-12-18T06:56:19.813Z,18.63
2018-12-18T06:58:45.807Z,22.20
2018-12-18T07:01:11.766Z,16.90
2018-12-18T07:03:37.768Z,19.07
2018-12-18T07:06:03.770Z,16.87
2018-12-18T07:08:29.825Z,14.93
2018-12-18T07:10:55.823Z,16.80
2018-12-18T07:13:21.789Z,16.23
2018-12-18T07:15:47.811Z,16.90
2018-12-18T07:18:13.763Z,15.00
2018-12-18T07:20:39.760Z,16.80
2018-12-18T07:23:05.741Z,17.93
2018-12-18T07:25:31.769Z,14.63
2018-12-18T07:27:57.795Z,16.13
2018-12-18T07:30:23.761Z,15.23
2018-12-18T07:32:49.773Z,14.97
2018-12-18T07:35:15.734Z,15.00
2018-12-18T07:37:41.735Z,16.67
2018-12-18T07:40:07.699Z,15.97
2018-12-18T07:42:33.713Z,19.97
2018-12-18T07:44:59.774Z,16.23
2018-12-18T07:47:25.726Z,14.30
2018-12-18T07:49:51.739Z,14.63
2018-12-18T07:52:17.725Z,14.53
2018-12-18T07:54:43.855Z,15.43
2018-12-18T07:57:09.834Z,14.50
2018-12-18T07:59:35.826Z,12.87
2018-12-18T08:02:01.834Z,12.30
2018-12-18T08:04:27.839Z,14.17
2018-12-18T08:06:53.843Z,13.13
2018-12-18T08:09:20.048Z,11.20
2018-12-18T08:11:46.126Z,13.43
2018-12-18T08:14:12.084Z,13.97
2018-12-18T08:16:38.064Z,14.13
2018-12-18T08:19:04.038Z,12.50
2018-12-18T08:21:30.067Z,11.37
2018-12-18T08:23:56.032Z,11.97
2018-12-18T08:26:22.122Z,13.37
2018-12-18T08:28:48.119Z,12.30
2018-12-18T08:31:14.076Z,12.83
2018-12-18T08:33:40.073Z,12.43
2018-12-18T08:36:06.031Z,13.77
2018-12-18T08:38:32.035Z,11.97
2018-12-18T08:40:58.011Z,16.27
2018-12-18T08:43:24.035Z,16.40
2018-12-18T08:45:49.991Z,13.17
2018-12-18T08:48:16.617Z,13.43
2018-12-18T08:50:42.612Z,14.43
2018-12-18T08:53:08.592Z,12.80
2018-12-18T08:55:34.667Z,13.30
2018-12-18T08:58:00.715Z,13.03
2018-12-18T09:00:26.764Z,14.80
2018-12-18T09:02:52.740Z,15.27
2018-12-18T09:05:18.740Z,12.80
2018-12-18T09:07:44.704Z,12.47
2018-12-18T09:10:10.749Z,12.13
2018-12-18T09:12:36.815Z,11.27
2018-12-18T09:15:06.309Z,11.90
2018-12-18T09:17:38.506Z,12.87
2018-12-18T09:20:05.075Z,15.13
2018-12-18T09:22:31.030Z,13.97
2018-12-18T09:24:57.065Z,13.47
2018-12-18T09:27:23.049Z,16.93
2018-12-18T09:29:48.999Z,13.23
2018-12-18T09:32:15.013Z,15.37
2018-12-18T09:34:40.979Z,16.43
2018-12-18T09:37:06.985Z,13.20
2018-12-18T09:39:39.025Z,14.03
2018-12-18T09:42:11.296Z,14.07
2018-12-18T09:44:37.253Z,12.63
2018-12-18T09:47:03.230Z,15.33
2018-12-18T09:49:29.232Z,15.90
2018-12-18T09:51:55.210Z,15.03
2018-12-18T09:54:21.186Z,14.97
2018-12-18T09:56:50.103Z,13.53
2018-12-18T09:59:16.106Z,11.40
2018-12-18T10:01:42.079Z,10.77
2018-12-18T10:04:08.096Z,13.40
2018-12-18T10:06:34.080Z,11.57
2018-12-18T10:09:00.047Z,13.23
2018-12-18T10:11:26.084Z,11.87
2018-12-18T10:13:52.142Z,16.00
2018-12-18T10:16:18.143Z,12.63
2018-12-18T10:18:44.095Z,14.97
2018-12-18T10:21:10.111Z,12.73
2018-12-18T10:23:36.119Z,13.97
2018-12-18T10:26:02.114Z,14.07
2018-12-18T10:28:28.097Z,13.20
2018-12-18T10:30:54.083Z,12.50
2018-12-18T10:33:20.093Z,12.57
2018-12-18T10:35:46.046Z,13.37
2018-12-18T10:38:12.062Z,13.90
2018-12-18T10:40:38.043Z,12.00
2018-12-18T10:43:04.005Z,12.13
2018-12-18T10:45:30.383Z,12.97
2018-12-18T10:47:56.343Z,11.13
2018-12-18T10:50:22.306Z,13.37
2018-12-18T10:52:48.325Z,13.47
2018-12-18T10:55:14.388Z,14.30
2018-12-18T10:57:40.364Z,16.67
2018-12-18T11:00:10.607Z,15.37
2018-12-18T11:02:36.617Z,14.90
2018-12-18T11:05:03.560Z,14.30
2018-12-18T11:07:29.574Z,16.03
2018-12-18T11:09:55.530Z,13.57
2018-12-18T11:12:23.719Z,11.47
2018-12-18T11:14:49.731Z,10.37
2018-12-18T11:17:15.824Z,10.57
2018-12-18T11:19:41.838Z,12.50
2018-12-18T11:22:07.842Z,10.03
2018-12-18T11:24:33.842Z,8.33
2018-12-18T11:26:59.965Z,8.87
2018-12-18T11:29:26.070Z,10.13
2018-12-18T11:31:52.423Z,9.97
2018-12-18T11:34:18.423Z,11.20
2018-12-18T11:36:45.362Z,12.57
2018-12-18T11:39:11.339Z,11.17
2018-12-18T11:41:37.344Z,7.53
2018-12-18T11:44:03.309Z,8.43
2018-12-18T11:46:29.379Z,7.83
2018-12-18T11:48:55.341Z,9.27
2018-12-18T11:51:21.293Z,9.60
2018-12-18T11:53:47.289Z,8.77
2018-12-18T11:56:13.275Z,9.17
2018-12-18T11:58:39.271Z,10.93
2018-12-18T12:01:05.247Z,10.67
2018-12-18T12:03:31.206Z,10.53
2018-12-18T12:05:57.136Z,10.47
2018-12-18T12:08:23.190Z,6.27
2018-12-18T12:10:49.127Z,5.97
2018-12-18T12:13:15.046Z,6.97
2018-12-18T12:15:41.017Z,8.40
2018-12-18T12:18:06.937Z,7.67
2018-12-18T12:20:32.887Z,8.20
2018-12-18T12:22:58.819Z,9.33
2018-12-18T12:25:24.768Z,7.27
2018-12-18T12:27:56.704Z,6.00
2018-12-18T12:30:22.689Z,5.77
2018-12-18T12:32:48.599Z,4.93
2018-12-18T12:35:14.581Z,6.93
2018-12-18T12:37:40.505Z,8.53
2018-12-18T12:40:06.444Z,6.37
2018-12-18T12:42:32.429Z,7.20
2018-12-18T12:44:58.449Z,6.70
2018-12-18T12:47:24.496Z,8.53
2018-12-18T12:49:50.470Z,7.17
2018-12-18T12:52:16.386Z,6.40
2018-12-18T12:54:42.335Z,6.77
2018-12-18T12:57:08.423Z,8.27
2018-12-18T12:59:34.457Z,6.13
2018-12-18T13:02:00.483Z,6.80
2018-12-18T13:04:26.467Z,6.53
2018-12-18T13:06:52.412Z,8.03
2018-12-18T13:09:18.366Z,5.33
2018-12-18T13:11:44.308Z,6.73
2018-12-18T13:14:10.288Z,6.03
2018-12-18T13:16:36.277Z,7.17
2018-12-18T13:19:02.208Z,4.43
2018-12-18T13:21:28.188Z,5.97
2018-12-18T13:23:54.105Z,5.23
2018-12-18T13:26:20.078Z,5.87
2018-12-18T13:28:46.131Z,5.23
2018-12-18T13:31:12.070Z,5.87
2018-12-18T13:33:38.036Z,4.77
2018-12-18T13:36:04.438Z,6.87
2018-12-18T13:38:30.431Z,7.03
2018-12-18T13:40:56.376Z,5.90
2018-12-18T13:43:22.355Z,5.60
2018-12-18T13:45:48.272Z,5.93
2018-12-18T13:48:14.255Z,6.90
2018-12-18T13:50:40.202Z,3.60
2018-12-18T13:53:06.161Z,7.17
2018-12-18T13:55:36.629Z,6.10
2018-12-18T13:58:00.228Z,4.73
2018-12-18T14:00:26.176Z,3.37
2018-12-18T14:02:52.115Z,8.57
2018-12-18T14:05:18.052Z,6.00
2018-12-18T14:07:44.018Z,5.73
2018-12-18T14:10:09.962Z,6.43
2018-12-18T14:12:35.935Z,5.83
2018-12-18T14:15:01.876Z,5.70
2018-12-18T14:17:27.870Z,5.47
2018-12-18T14:19:53.810Z,4.80
2018-12-18T14:22:19.798Z,7.57
2018-12-18T14:24:45.830Z,5.70
2018-12-18T14:27:11.842Z,5.57
2018-12-18T14:29:37.794Z,4.87
2018-12-18T14:32:03.730Z,5.60
2018-12-18T14:34:29.684Z,6.03
2018-12-18T14:36:56.401Z,4.57
2018-12-18T14:39:22.616Z,5.13
2018-12-18T14:41:48.562Z,5.43
2018-12-18T14:44:14.515Z,5.67
2018-12-18T14:46:40.435Z,4.07
2018-12-18T14:49:06.443Z,6.33
2018-12-18T14:51:32.363Z,6.67
2018-12-18T14:53:58.309Z,6.03
2018-12-18T14:56:24.296Z,5.30
2018-12-18T14:58:50.299Z,5.77
2018-12-18T15:01:16.364Z,6.37
2018-12-18T15:03:42.305Z,6.80
2018-12-18T15:06:08.404Z,5.53
2018-12-18T15:08:38.690Z,7.97
2018-12-18T15:11:04.874Z,5.27
2018-12-18T15:13:30.860Z,8.07
2018-12-18T15:15:56.850Z,5.73
2018-12-18T15:18:22.821Z,6.00
2018-12-18T15:20:48.792Z,8.67
2018-12-18T15:23:14.762Z,5.83
2018-12-18T15:25:40.768Z,8.17
2018-12-18T15:28:06.839Z,5.37
2018-12-18T15:30:32.760Z,5.23
2018-12-18T15:32:58.726Z,7.30
2018-12-18T15:35:25.249Z,6.30
2018-12-18T15:37:51.224Z,5.43
2018-12-18T15:40:17.347Z,4.93
2018-12-18T15:42:43.303Z,6.47
2018-12-18T15:45:09.353Z,9.67
2018-12-18T15:47:35.315Z,11.93
2018-12-18T15:50:01.271Z,14.17
2018-12-18T15:52:27.193Z,11.80
2018-12-18T15:54:53.189Z,8.67
2018-12-18T15:57:19.165Z,12.87
2018-12-18T15:59:45.151Z,10.73
2018-12-18T16:02:11.096Z,9.17
2018-12-18T16:04:37.011Z,6.93
2018-12-18T16:07:02.980Z,7.87
2018-12-18T16:09:28.917Z,5.83
2018-12-18T16:11:55.128Z,6.57
2018-12-18T16:14:21.139Z,6.30
2018-12-18T16:16:47.106Z,6.27
2018-12-18T16:19:13.055Z,5.63
2018-12-18T16:21:39.267Z,7.63
2018-12-18T16:24:05.180Z,6.30
2018-12-18T16:26:31.133Z,9.33
2018-12-18T16:28:57.108Z,6.07
2018-12-18T16:31:23.081Z,8.60
2018-12-18T16:33:49.046Z,6.83
2018-12-18T16:36:14.967Z,8.37
2018-12-18T16:38:40.934Z,8.50
2018-12-18T16:41:06.842Z,8.03
2018-12-18T16:43:32.813Z,8.17
2018-12-18T16:45:58.784Z,17.47
2018-12-18T16:48:24.733Z,14.53
2018-12-18T16:50:50.801Z,17.73
2018-12-18T16:53:16.733Z,15.63
2018-12-18T16:55:42.715Z,13.63
2018-12-18T16:58:08.746Z,14.17
2018-12-18T17:00:34.812Z,13.67
2018-12-18T17:03:00.779Z,12.23
2018-12-18T17:05:26.701Z,10.63
2018-12-18T17:07:52.781Z,11.93
2018-12-18T17:10:18.720Z,12.27
2018-12-18T17:12:50.675Z,11.90
2018-12-18T17:15:16.630Z,9.17
2018-12-18T17:17:42.616Z,9.87
2018-12-18T17:20:08.564Z,11.83
2018-12-18T17:22:34.534Z,8.73
2018-12-18T17:25:00.462Z,11.17
2018-12-18T17:27:26.455Z,11.70
2018-12-18T17:29:52.508Z,9.57
2018-12-18T17:32:18.492Z,9.70
2018-12-18T17:34:44.430Z,9.80
2018-12-18T17:37:10.402Z,10.03
2018-12-18T17:39:36.368Z,8.90
2018-12-18T17:42:02.322Z,9.07
2018-12-18T17:44:28.395Z,10.00
2018-12-18T17:46:54.387Z,8.33
2018-12-18T17:49:24.303Z,8.37
2018-12-18T17:51:50.261Z,9.27
2018-12-18T17:54:16.311Z,8.30
2018-12-18T17:56:42.297Z,8.67
2018-12-18T17:59:08.245Z,9.87
2018-12-18T18:01:34.207Z,9.67
2018-12-18T18:04:00.179Z,9.33
2018-12-18T18:06:26.124Z,10.60
2018-12-18T18:08:52.110Z,10.87
2018-12-18T18:11:18.065Z,7.97
2018-12-18T18:13:44.078Z,9.37
2018-12-18T18:16:10.062Z,8.63
2018-12-18T18:18:36.150Z,13.83
2018-12-18T18:21:02.091Z,11.37
2018-12-18T18:23:28.089Z,10.00
2018-12-18T18:25:54.187Z,8.53
2018-12-18T18:28:20.180Z,9.00
2018-12-18T18:30:46.127Z,9.37
2018-12-18T18:33:12.066Z,9.27
2018-12-18T18:35:38.050Z,11.03
2018-12-18T18:38:04.012Z,8.93
2018-12-18T18:40:29.988Z,8.93
2018-12-18T18:42:55.890Z,9.27
2018-12-18T18:45:21.873Z,9.07
2018-12-18T18:47:47.921Z,8.73
2018-12-18T18:50:13.838Z,7.40
2018-12-18T18:52:39.827Z,8.23
2018-12-18T18:55:05.758Z,10.07
2018-12-18T18:57:31.751Z,11.07
2018-12-18T18:59:57.674Z,11.00
2018-12-18T19:02:23.690Z,10.10
2018-12-18T19:04:49.644Z,9.73
2018-12-18T19:07:15.683Z,11.80
2018-12-18T19:09:41.689Z,8.63
2018-12-18T19:12:07.647Z,8.20
2018-12-18T19:14:33.604Z,8.87
2018-12-18T19:16:59.538Z,10.53
2018-12-18T19:19:25.547Z,9.37
2018-12-18T19:21:51.497Z,11.03
2018-12-18T19:24:17.462Z,8.53
2018-12-18T19:26:43.440Z,10.07
2018-12-18T19:29:09.450Z,9.40
2018-12-18T19:31:35.382Z,8.40
2018-12-18T19:34:01.350Z,9.43
2018-12-18T19:36:27.838Z,7.40
2018-12-18T19:38:53.906Z,10.60
2018-12-18T19:41:19.877Z,9.87
2018-12-18T19:43:45.924Z,9.43
2018-12-18T19:46:12.165Z,9.03
2018-12-18T19:48:38.499Z,9.60
2018-12-18T19:51:04.452Z,10.80
2018-12-18T19:53:30.601Z,10.70
2018-12-18T19:55:56.593Z,10.50
2018-12-18T19:58:22.649Z,11.67
2018-12-18T20:00:48.600Z,11.53
2018-12-18T20:03:14.558Z,15.60
2018-12-18T20:05:40.690Z,11.23
2018-12-18T20:08:10.060Z,13.60
2018-12-18T20:10:34.673Z,18.97
2018-12-18T20:13:02.728Z,15.13
2018-12-18T20:15:28.725Z,13.03
2018-12-18T20:17:54.831Z,15.27
2018-12-18T20:20:20.799Z,13.90
2018-12-18T20:22:46.896Z,14.03
2018-12-18T20:25:13.026Z,14.17
2018-12-18T20:27:39.070Z,13.60
2018-12-18T20:30:05.107Z,13.57
2018-12-18T20:32:31.074Z,14.47
2018-12-18T20:34:57.102Z,14.83
2018-12-18T20:37:23.099Z,16.10
2018-12-18T20:39:49.632Z,16.40
2018-12-18T20:42:15.720Z,13.97
2018-12-18T20:44:41.760Z,13.40
2018-12-18T20:47:07.747Z,11.83
2018-12-18T20:49:33.798Z,12.93
2018-12-18T20:51:59.798Z,11.30
2018-12-18T20:54:25.810Z,12.07
2018-12-18T20:56:51.915Z,12.97
2018-12-18T20:59:17.985Z,12.93
2018-12-18T21:01:44.109Z,16.80
2018-12-18T21:04:10.081Z,13.63
2018-12-18T21:06:36.709Z,13.30
2018-12-18T21:09:05.749Z,12.97
2018-12-18T21:11:31.858Z,11.03
2018-12-18T21:13:57.934Z,11.03
2018-12-18T21:16:23.942Z,14.27
2018-12-18T21:18:50.090Z,12.87
2018-12-18T21:21:16.197Z,11.90
2018-12-18T21:23:42.184Z,13.20
2018-12-18T21:26:08.176Z,13.07
2018-12-18T21:28:34.187Z,12.70
2018-12-18T21:31:00.237Z,12.27
2018-12-18T21:33:26.336Z,10.50
2018-12-18T21:35:52.364Z,11.93
2018-12-18T21:38:18.433Z,11.27
2018-12-18T21:40:44.479Z,13.27
2018-12-18T21:43:10.468Z,18.90
2018-12-18T21:45:36.468Z,20.20
2018-12-18T21:48:02.463Z,15.70
2018-12-18T21:50:28.412Z,10.97
2018-12-18T21:52:54.396Z,11.00
2018-12-18T21:55:20.472Z,14.43
2018-12-18T21:57:46.568Z,13.77
2018-12-18T22:00:12.586Z,19.10
2018-12-18T22:02:38.588Z,17.17
2018-12-18T22:05:04.546Z,13.40
2018-12-18T22:07:30.562Z,12.93
2018-12-18T22:09:56.628Z,13.90
2018-12-18T22:12:22.630Z,11.10
2018-12-18T22:14:48.607Z,9.57
2018-12-18T22:17:14.605Z,11.97
2018-12-18T22:19:40.567Z,16.20
2018-12-18T22:22:06.548Z,14.30
2018-12-18T22:24:32.591Z,13.87
2018-12-18T22:26:58.583Z,14.27
2018-12-18T22:29:24.608Z,11.00
2018-12-18T22:31:50.622Z,12.17
2018-12-18T22:34:16.592Z,14.43
2018-12-18T22:36:42.592Z,13.47
2018-12-18T22:39:08.541Z,12.83
2018-12-18T22:41:34.549Z,13.43
2018-12-18T22:44:00.517Z,14.93
2018-12-18T22:46:26.517Z,18.93
2018-12-18T22:48:52.493Z,37.93
2018-12-18T22:51:18.493Z,39.13
2018-12-18T22:53:44.464Z,20.20
2018-12-18T22:56:10.447Z,15.23
2018-12-18T22:58:36.527Z,11.30
2018-12-18T23:01:05.174Z,10.73
2018-12-18T23:03:31.187Z,11.57
2018-12-18T23:05:57.202Z,10.03
2018-12-18T23:08:23.236Z,9.87
2018-12-18T23:10:49.235Z,12.13
2018-12-18T23:13:21.392Z,13.57
2018-12-18T23:15:47.340Z,11.13
2018-12-18T23:18:13.368Z,11.40
2018-12-18T23:20:39.344Z,14.60
2018-12-18T23:23:12.874Z,11.23
2018-12-18T23:25:38.991Z,10.80
2018-12-18T23:28:05.579Z,13.80
2018-12-18T23:30:31.627Z,16.53
2018-12-18T23:32:57.591Z,12.27
2018-12-18T23:35:23.606Z,13.87
2018-12-18T23:37:49.581Z,9.57
2018-12-18T23:40:15.601Z,11.77
2018-12-18T23:42:41.559Z,10.00
2018-12-18T23:45:07.565Z,9.13
2018-12-18T23:47:33.652Z,10.50
2018-12-18T23:50:00.181Z,9.17
2018-12-18T23:52:26.274Z,10.30
2018-12-18T23:54:52.233Z,11.63
2018-12-18T23:57:18.257Z,9.20
2018-12-18T23:59:44.221Z,12.87
